sensor_id;sensor_type;location;lat;lon;timestamp;P1;durP1;ratioP1;P2;durP2;ratioP2
7398;SDS011;3740;50.700;7.184;2023-04-01T00:02:06;2.37;;;1.13;;
7398;SDS011;3740;50.700;7.184;2023-04-01T00:04:32;2.03;;;1.13;;
7398;SDS011;3740;50.700;7.184;2023-04-01T00:06:58;1.63;;;1.00;;
7398;SDS011;3740;50.700;7.184;2023-04-01T00:09:25;1.93;;;1.20;;
7398;SDS011;3740;50.700;7.184;2023-04-01T00:11:50;1.70;;;1.17;;
7398;SDS011;3740;50.700;7.184;2023-04-01T00:14:16;2.17;;;1.10;;
7398;SDS011;3740;50.700;7.184;2023-04-01T00:16:41;1.40;;;0.90;;
7398;SDS011;3740;50.700;7.184;2023-04-01T00:19:07;3.93;;;1.07;;
7398;SDS011;3740;50.700;7.184;2023-04-01T00:21:33;1.17;;;1.03;;
7398;SDS011;3740;50.700;7.184;2023-04-01T00:23:59;0.63;;;0.63;;
7398;SDS011;3740;50.700;7.184;2023-04-01T00:26:25;2.27;;;1.33;;
7398;SDS011;3740;50.700;7.184;2023-04-01T00:28:51;1.57;;;1.23;;
7398;SDS011;3740;50.700;7.184;2023-04-01T00:31:17;2.90;;;1.90;;
7398;SDS011;3740;50.700;7.184;2023-04-01T00:33:42;2.50;;;1.70;;
7398;SDS011;3740;50.700;7.184;2023-04-01T00:36:12;2.17;;;1.10;;
7398;SDS011;3740;50.700;7.184;2023-04-01T00:38:40;3.53;;;1.63;;
7398;SDS011;3740;50.700;7.184;2023-04-01T00:41:07;1.80;;;1.23;;
7398;SDS011;3740;50.700;7.184;2023-04-01T00:43:33;1.70;;;1.30;;
7398;SDS011;3740;50.700;7.184;2023-04-01T00:46:00;3.17;;;1.30;;
7398;SDS011;3740;50.700;7.184;2023-04-01T00:48:30;2.17;;;1.60;;
7398;SDS011;3740;50.700;7.184;2023-04-01T00:53:55;2.63;;;1.60;;
7398;SDS011;3740;50.700;7.184;2023-04-01T00:56:24;3.83;;;2.60;;
7398;SDS011;3740;50.700;7.184;2023-04-01T00:58:57;4.23;;;3.27;;
7398;SDS011;3740;50.700;7.184;2023-04-01T01:01:25;3.43;;;2.70;;
7398;SDS011;3740;50.700;7.184;2023-04-01T01:03:52;2.23;;;1.97;;
7398;SDS011;3740;50.700;7.184;2023-04-01T01:09:10;2.77;;;1.67;;
7398;SDS011;3740;50.700;7.184;2023-04-01T01:34:04;1.30;;;0.90;;
7398;SDS011;3740;50.700;7.184;2023-04-01T01:36:55;1.33;;;0.80;;
7398;SDS011;3740;50.700;7.184;2023-04-01T01:39:25;1.70;;;0.80;;
7398;SDS011;3740;50.700;7.184;2023-04-01T01:41:55;1.00;;;0.83;;
7398;SDS011;3740;50.700;7.184;2023-04-01T01:44:22;1.03;;;0.80;;
7398;SDS011;3740;50.700;7.184;2023-04-01T01:46:49;2.43;;;1.03;;
7398;SDS011;3740;50.700;7.184;2023-04-01T01:49:14;1.30;;;1.20;;
7398;SDS011;3740;50.700;7.184;2023-04-01T01:51:42;0.83;;;0.83;;
7398;SDS011;3740;50.700;7.184;2023-04-01T01:54:11;1.07;;;0.90;;
7398;SDS011;3740;50.700;7.184;2023-04-01T01:56:38;1.80;;;1.00;;
7398;SDS011;3740;50.700;7.184;2023-04-01T01:59:05;1.43;;;0.90;;
7398;SDS011;3740;50.700;7.184;2023-04-01T02:01:37;1.83;;;0.80;;
7398;SDS011;3740;50.700;7.184;2023-04-01T02:04:06;2.43;;;1.20;;
7398;SDS011;3740;50.700;7.184;2023-04-01T02:06:34;1.00;;;0.50;;
7398;SDS011;3740;50.700;7.184;2023-04-01T02:09:05;0.93;;;0.67;;
7398;SDS011;3740;50.700;7.184;2023-04-01T02:11:37;2.10;;;0.70;;
7398;SDS011;3740;50.700;7.184;2023-04-01T02:14:10;1.27;;;0.60;;
7398;SDS011;3740;50.700;7.184;2023-04-01T02:16:44;1.87;;;1.10;;
7398;SDS011;3740;50.700;7.184;2023-04-01T02:19:18;1.20;;;0.77;;
7398;SDS011;3740;50.700;7.184;2023-04-01T02:21:48;2.60;;;0.87;;
7398;SDS011;3740;50.700;7.184;2023-04-01T02:24:17;1.80;;;0.90;;
7398;SDS011;3740;50.700;7.184;2023-04-01T02:26:47;1.33;;;0.80;;
7398;SDS011;3740;50.700;7.184;2023-04-01T02:29:15;1.47;;;0.70;;
7398;SDS011;3740;50.700;7.184;2023-04-01T02:31:43;1.47;;;0.70;;
7398;SDS011;3740;50.700;7.184;2023-04-01T02:34:08;2.33;;;1.07;;
7398;SDS011;3740;50.700;7.184;2023-04-01T02:36:34;2.40;;;1.40;;
7398;SDS011;3740;50.700;7.184;2023-04-01T02:39:01;1.73;;;1.07;;
7398;SDS011;3740;50.700;7.184;2023-04-01T02:41:29;1.53;;;0.57;;
7398;SDS011;3740;50.700;7.184;2023-04-01T02:43:55;2.37;;;0.87;;
7398;SDS011;3740;50.700;7.184;2023-04-01T02:46:22;2.00;;;0.97;;
7398;SDS011;3740;50.700;7.184;2023-04-01T02:48:47;2.00;;;0.80;;
7398;SDS011;3740;50.700;7.184;2023-04-01T02:51:13;1.37;;;0.70;;
7398;SDS011;3740;50.700;7.184;2023-04-01T02:53:39;1.77;;;1.07;;
7398;SDS011;3740;50.700;7.184;2023-04-01T02:56:04;2.33;;;0.87;;
7398;SDS011;3740;50.700;7.184;2023-04-01T02:58:30;2.10;;;0.83;;
7398;SDS011;3740;50.700;7.184;2023-04-01T03:00:56;0.80;;;0.60;;
7398;SDS011;3740;50.700;7.184;2023-04-01T03:03:21;2.53;;;0.90;;
7398;SDS011;3740;50.700;7.184;2023-04-01T03:05:47;1.70;;;0.77;;
7398;SDS011;3740;50.700;7.184;2023-04-01T03:08:12;1.63;;;0.80;;
7398;SDS011;3740;50.700;7.184;2023-04-01T03:10:38;1.33;;;1.07;;
7398;SDS011;3740;50.700;7.184;2023-04-01T03:13:03;2.73;;;1.00;;
7398;SDS011;3740;50.700;7.184;2023-04-01T03:15:29;0.97;;;0.50;;
7398;SDS011;3740;50.700;7.184;2023-04-01T03:17:55;1.50;;;0.63;;
7398;SDS011;3740;50.700;7.184;2023-04-01T03:20:20;0.73;;;0.50;;
7398;SDS011;3740;50.700;7.184;2023-04-01T03:22:46;2.00;;;0.90;;
7398;SDS011;3740;50.700;7.184;2023-04-01T03:25:12;2.67;;;1.00;;
7398;SDS011;3740;50.700;7.184;2023-04-01T03:27:38;1.00;;;0.77;;
7398;SDS011;3740;50.700;7.184;2023-04-01T03:30:04;1.77;;;0.80;;
7398;SDS011;3740;50.700;7.184;2023-04-01T03:32:31;1.43;;;0.90;;
7398;SDS011;3740;50.700;7.184;2023-04-01T03:34:56;2.07;;;0.97;;
7398;SDS011;3740;50.700;7.184;2023-04-01T03:37:22;0.93;;;0.80;;
7398;SDS011;3740;50.700;7.184;2023-04-01T03:39:48;1.50;;;0.93;;
7398;SDS011;3740;50.700;7.184;2023-04-01T03:42:14;1.13;;;0.83;;
7398;SDS011;3740;50.700;7.184;2023-04-01T03:44:40;1.00;;;0.63;;
7398;SDS011;3740;50.700;7.184;2023-04-01T03:47:05;0.87;;;0.80;;
7398;SDS011;3740;50.700;7.184;2023-04-01T03:49:31;0.97;;;0.50;;
7398;SDS011;3740;50.700;7.184;2023-04-01T03:51:57;0.80;;;0.60;;
7398;SDS011;3740;50.700;7.184;2023-04-01T03:54:23;1.20;;;0.80;;
7398;SDS011;3740;50.700;7.184;2023-04-01T03:56:49;1.73;;;0.53;;
7398;SDS011;3740;50.700;7.184;2023-04-01T03:59:15;0.97;;;0.57;;
7398;SDS011;3740;50.700;7.184;2023-04-01T04:01:41;0.40;;;0.40;;
7398;SDS011;3740;50.700;7.184;2023-04-01T04:04:06;1.13;;;0.50;;
7398;SDS011;3740;50.700;7.184;2023-04-01T04:06:32;0.77;;;0.77;;
7398;SDS011;3740;50.700;7.184;2023-04-01T04:08:58;1.93;;;0.50;;
7398;SDS011;3740;50.700;7.184;2023-04-01T04:11:24;0.83;;;0.50;;
7398;SDS011;3740;50.700;7.184;2023-04-01T04:13:49;0.77;;;0.50;;
7398;SDS011;3740;50.700;7.184;2023-04-01T04:16:16;0.87;;;0.47;;
7398;SDS011;3740;50.700;7.184;2023-04-01T04:18:42;0.30;;;0.27;;
7398;SDS011;3740;50.700;7.184;2023-04-01T04:21:10;0.20;;;0.20;;
7398;SDS011;3740;50.700;7.184;2023-04-01T04:23:37;1.17;;;0.50;;
7398;SDS011;3740;50.700;7.184;2023-04-01T04:26:04;0.53;;;0.43;;
7398;SDS011;3740;50.700;7.184;2023-04-01T04:28:31;0.93;;;0.63;;
7398;SDS011;3740;50.700;7.184;2023-04-01T04:30:57;0.40;;;0.30;;
7398;SDS011;3740;50.700;7.184;2023-04-01T04:33:23;0.80;;;0.50;;
7398;SDS011;3740;50.700;7.184;2023-04-01T04:35:50;0.37;;;0.20;;
7398;SDS011;3740;50.700;7.184;2023-04-01T04:38:16;0.60;;;0.50;;
7398;SDS011;3740;50.700;7.184;2023-04-01T04:40:42;0.57;;;0.20;;
7398;SDS011;3740;50.700;7.184;2023-04-01T04:43:12;0.40;;;0.40;;
7398;SDS011;3740;50.700;7.184;2023-04-01T04:45:39;0.67;;;0.20;;
7398;SDS011;3740;50.700;7.184;2023-04-01T04:48:09;0.57;;;0.33;;
7398;SDS011;3740;50.700;7.184;2023-04-01T04:50:41;1.07;;;0.23;;
7398;SDS011;3740;50.700;7.184;2023-04-01T04:53:09;0.20;;;0.20;;
7398;SDS011;3740;50.700;7.184;2023-04-01T04:55:35;0.73;;;0.40;;
7398;SDS011;3740;50.700;7.184;2023-04-01T04:58:01;0.57;;;0.40;;
7398;SDS011;3740;50.700;7.184;2023-04-01T05:00:26;0.33;;;0.33;;
7398;SDS011;3740;50.700;7.184;2023-04-01T05:02:52;0.20;;;0.20;;
7398;SDS011;3740;50.700;7.184;2023-04-01T05:05:17;0.60;;;0.40;;
7398;SDS011;3740;50.700;7.184;2023-04-01T05:07:43;0.50;;;0.27;;
7398;SDS011;3740;50.700;7.184;2023-04-01T05:10:09;1.10;;;0.40;;
7398;SDS011;3740;50.700;7.184;2023-04-01T05:12:35;0.20;;;0.20;;
7398;SDS011;3740;50.700;7.184;2023-04-01T05:15:07;1.03;;;0.33;;
7398;SDS011;3740;50.700;7.184;2023-04-01T05:17:33;0.53;;;0.53;;
7398;SDS011;3740;50.700;7.184;2023-04-01T05:19:59;0.47;;;0.30;;
7398;SDS011;3740;50.700;7.184;2023-04-01T05:22:25;0.20;;;0.20;;
7398;SDS011;3740;50.700;7.184;2023-04-01T05:24:51;0.87;;;0.50;;
7398;SDS011;3740;50.700;7.184;2023-04-01T05:27:16;1.43;;;0.60;;
7398;SDS011;3740;50.700;7.184;2023-04-01T05:29:42;0.60;;;0.50;;
7398;SDS011;3740;50.700;7.184;2023-04-01T05:32:08;1.50;;;0.80;;
7398;SDS011;3740;50.700;7.184;2023-04-01T05:34:33;1.23;;;0.60;;
7398;SDS011;3740;50.700;7.184;2023-04-01T05:36:59;0.30;;;0.30;;
7398;SDS011;3740;50.700;7.184;2023-04-01T05:39:25;0.40;;;0.33;;
7398;SDS011;3740;50.700;7.184;2023-04-01T05:41:51;1.13;;;0.47;;
7398;SDS011;3740;50.700;7.184;2023-04-01T05:44:17;1.23;;;0.40;;
7398;SDS011;3740;50.700;7.184;2023-04-01T05:46:43;1.03;;;0.40;;
7398;SDS011;3740;50.700;7.184;2023-04-01T05:49:08;0.83;;;0.40;;
7398;SDS011;3740;50.700;7.184;2023-04-01T05:51:34;0.70;;;0.40;;
7398;SDS011;3740;50.700;7.184;2023-04-01T05:53:59;1.63;;;0.50;;
7398;SDS011;3740;50.700;7.184;2023-04-01T05:56:25;0.37;;;0.37;;
7398;SDS011;3740;50.700;7.184;2023-04-01T05:58:51;0.30;;;0.30;;
7398;SDS011;3740;50.700;7.184;2023-04-01T06:01:18;0.30;;;0.30;;
7398;SDS011;3740;50.700;7.184;2023-04-01T06:03:45;0.77;;;0.20;;
7398;SDS011;3740;50.700;7.184;2023-04-01T06:06:13;0.40;;;0.40;;
7398;SDS011;3740;50.700;7.184;2023-04-01T06:08:40;0.83;;;0.40;;
7398;SDS011;3740;50.700;7.184;2023-04-01T06:11:12;0.40;;;0.40;;
7398;SDS011;3740;50.700;7.184;2023-04-01T06:14:11;0.20;;;0.20;;
7398;SDS011;3740;50.700;7.184;2023-04-01T06:19:26;0.47;;;0.47;;
7398;SDS011;3740;50.700;7.184;2023-04-01T06:22:35;0.40;;;0.30;;
7398;SDS011;3740;50.700;7.184;2023-04-01T06:33:53;0.33;;;0.23;;
7398;SDS011;3740;50.700;7.184;2023-04-01T06:39:26;0.63;;;0.50;;
7398;SDS011;3740;50.700;7.184;2023-04-01T06:42:03;0.33;;;0.30;;
7398;SDS011;3740;50.700;7.184;2023-04-01T06:50:26;0.20;;;0.20;;
7398;SDS011;3740;50.700;7.184;2023-04-01T06:55:46;0.80;;;0.60;;
7398;SDS011;3740;50.700;7.184;2023-04-01T06:58:25;0.60;;;0.50;;
7398;SDS011;3740;50.700;7.184;2023-04-01T07:00:56;0.40;;;0.40;;
7398;SDS011;3740;50.700;7.184;2023-04-01T07:03:32;1.33;;;0.53;;
7398;SDS011;3740;50.700;7.184;2023-04-01T07:06:06;0.87;;;0.60;;
7398;SDS011;3740;50.700;7.184;2023-04-01T07:08:39;0.50;;;0.50;;
7398;SDS011;3740;50.700;7.184;2023-04-01T07:11:09;0.70;;;0.40;;
7398;SDS011;3740;50.700;7.184;2023-04-01T07:18:58;0.60;;;0.60;;
7398;SDS011;3740;50.700;7.184;2023-04-01T07:21:30;0.80;;;0.80;;
7398;SDS011;3740;50.700;7.184;2023-04-01T07:23:59;1.93;;;1.00;;
7398;SDS011;3740;50.700;7.184;2023-04-01T07:26:30;0.83;;;0.60;;
7398;SDS011;3740;50.700;7.184;2023-04-01T07:28:56;1.33;;;0.63;;
7398;SDS011;3740;50.700;7.184;2023-04-01T07:36:58;0.63;;;0.60;;
7398;SDS011;3740;50.700;7.184;2023-04-01T07:45:14;0.33;;;0.30;;
7398;SDS011;3740;50.700;7.184;2023-04-01T07:53:36;0.47;;;0.47;;
7398;SDS011;3740;50.700;7.184;2023-04-01T07:56:09;0.70;;;0.70;;
7398;SDS011;3740;50.700;7.184;2023-04-01T08:01:32;1.60;;;0.70;;
7398;SDS011;3740;50.700;7.184;2023-04-01T08:04:25;0.50;;;0.50;;
7398;SDS011;3740;50.700;7.184;2023-04-01T08:06:58;0.40;;;0.40;;
7398;SDS011;3740;50.700;7.184;2023-04-01T08:09:56;0.70;;;0.70;;
7398;SDS011;3740;50.700;7.184;2023-04-01T08:12:42;0.50;;;0.50;;
7398;SDS011;3740;50.700;7.184;2023-04-01T08:15:18;0.53;;;0.50;;
7398;SDS011;3740;50.700;7.184;2023-04-01T08:20:44;0.50;;;0.50;;
7398;SDS011;3740;50.700;7.184;2023-04-01T08:25:44;0.93;;;0.50;;
7398;SDS011;3740;50.700;7.184;2023-04-01T08:31:09;0.93;;;0.50;;
7398;SDS011;3740;50.700;7.184;2023-04-01T08:33:57;0.70;;;0.60;;
7398;SDS011;3740;50.700;7.184;2023-04-01T08:36:24;0.30;;;0.30;;
7398;SDS011;3740;50.700;7.184;2023-04-01T08:38:57;1.20;;;1.10;;
7398;SDS011;3740;50.700;7.184;2023-04-01T08:41:46;1.57;;;1.30;;
7398;SDS011;3740;50.700;7.184;2023-04-01T08:50:01;4.70;;;4.30;;
7398;SDS011;3740;50.700;7.184;2023-04-01T09:18:12;1.30;;;1.20;;
7398;SDS011;3740;50.700;7.184;2023-04-01T09:23:54;0.70;;;0.70;;
7398;SDS011;3740;50.700;7.184;2023-04-01T09:26:52;0.60;;;0.50;;
7398;SDS011;3740;50.700;7.184;2023-04-01T09:35:25;1.23;;;0.70;;
7398;SDS011;3740;50.700;7.184;2023-04-01T09:41:07;0.67;;;0.50;;
7398;SDS011;3740;50.700;7.184;2023-04-01T09:57:30;0.70;;;0.70;;
7398;SDS011;3740;50.700;7.184;2023-04-01T10:12:24;0.50;;;0.50;;
7398;SDS011;3740;50.700;7.184;2023-04-01T10:18:01;0.80;;;0.80;;
7398;SDS011;3740;50.700;7.184;2023-04-01T10:29:29;0.50;;;0.30;;
7398;SDS011;3740;50.700;7.184;2023-04-01T11:00:53;0.30;;;0.30;;
7398;SDS011;3740;50.700;7.184;2023-04-01T11:09:29;0.80;;;0.50;;
7398;SDS011;3740;50.700;7.184;2023-04-01T11:18:25;0.60;;;0.60;;
7398;SDS011;3740;50.700;7.184;2023-04-01T11:24:20;1.50;;;0.60;;
7398;SDS011;3740;50.700;7.184;2023-04-01T11:43:55;0.40;;;0.40;;
7398;SDS011;3740;50.700;7.184;2023-04-01T11:46:24;0.97;;;0.87;;
7398;SDS011;3740;50.700;7.184;2023-04-01T11:57:41;0.50;;;0.50;;
7398;SDS011;3740;50.700;7.184;2023-04-01T12:00:34;0.70;;;0.70;;
7398;SDS011;3740;50.700;7.184;2023-04-01T12:09:08;1.30;;;0.97;;
7398;SDS011;3740;50.700;7.184;2023-04-01T12:14:54;1.17;;;1.07;;
7398;SDS011;3740;50.700;7.184;2023-04-01T12:17:43;1.00;;;0.80;;
7398;SDS011;3740;50.700;7.184;2023-04-01T12:20:36;1.33;;;1.23;;
7398;SDS011;3740;50.700;7.184;2023-04-01T12:31:25;1.03;;;1.03;;
7398;SDS011;3740;50.700;7.184;2023-04-01T12:36:47;1.10;;;1.00;;
7398;SDS011;3740;50.700;7.184;2023-04-01T12:39:44;0.80;;;0.80;;
7398;SDS011;3740;50.700;7.184;2023-04-01T12:42:30;0.50;;;0.50;;
7398;SDS011;3740;50.700;7.184;2023-04-01T12:45:17;0.60;;;0.60;;
7398;SDS011;3740;50.700;7.184;2023-04-01T12:50:57;0.40;;;0.40;;
7398;SDS011;3740;50.700;7.184;2023-04-01T12:54:02;0.60;;;0.60;;
7398;SDS011;3740;50.700;7.184;2023-04-01T12:59:56;0.87;;;0.87;;
7398;SDS011;3740;50.700;7.184;2023-04-01T13:05:02;1.37;;;0.90;;
7398;SDS011;3740;50.700;7.184;2023-04-01T13:10:45;1.20;;;0.93;;
7398;SDS011;3740;50.700;7.184;2023-04-01T13:13:34;0.60;;;0.60;;
7398;SDS011;3740;50.700;7.184;2023-04-01T13:18:53;1.70;;;1.03;;
7398;SDS011;3740;50.700;7.184;2023-04-01T13:22:05;1.73;;;1.50;;
7398;SDS011;3740;50.700;7.184;2023-04-01T13:24:44;1.33;;;0.90;;
7398;SDS011;3740;50.700;7.184;2023-04-01T13:29:59;1.30;;;1.20;;
7398;SDS011;3740;50.700;7.184;2023-04-01T13:35:18;1.00;;;1.00;;
7398;SDS011;3740;50.700;7.184;2023-04-01T13:38:19;1.07;;;0.90;;
7398;SDS011;3740;50.700;7.184;2023-04-01T13:44:28;0.80;;;0.80;;
7398;SDS011;3740;50.700;7.184;2023-04-01T13:49:48;0.73;;;0.60;;
7398;SDS011;3740;50.700;7.184;2023-04-01T14:00:54;1.30;;;0.80;;
7398;SDS011;3740;50.700;7.184;2023-04-01T14:03:30;0.67;;;0.67;;
7398;SDS011;3740;50.700;7.184;2023-04-01T14:06:05;1.17;;;0.80;;
7398;SDS011;3740;50.700;7.184;2023-04-01T14:11:25;1.50;;;1.40;;
7398;SDS011;3740;50.700;7.184;2023-04-01T14:28:06;1.20;;;1.10;;
7398;SDS011;3740;50.700;7.184;2023-04-01T14:30:42;0.60;;;0.60;;
7398;SDS011;3740;50.700;7.184;2023-04-01T14:36:04;0.87;;;0.87;;
7398;SDS011;3740;50.700;7.184;2023-04-01T14:38:52;0.50;;;0.50;;
7398;SDS011;3740;50.700;7.184;2023-04-01T14:41:42;0.70;;;0.70;;
7398;SDS011;3740;50.700;7.184;2023-04-01T14:50:09;1.13;;;1.10;;
7398;SDS011;3740;50.700;7.184;2023-04-01T14:58:13;0.60;;;0.60;;
7398;SDS011;3740;50.700;7.184;2023-04-01T15:03:30;0.70;;;0.60;;
7398;SDS011;3740;50.700;7.184;2023-04-01T15:11:59;0.87;;;0.80;;
7398;SDS011;3740;50.700;7.184;2023-04-01T15:15:10;0.93;;;0.93;;
7398;SDS011;3740;50.700;7.184;2023-04-01T15:17:55;1.47;;;1.07;;
7398;SDS011;3740;50.700;7.184;2023-04-01T15:20:36;1.43;;;1.33;;
7398;SDS011;3740;50.700;7.184;2023-04-01T15:23:31;0.70;;;0.70;;
7398;SDS011;3740;50.700;7.184;2023-04-01T15:31:39;0.80;;;0.80;;
7398;SDS011;3740;50.700;7.184;2023-04-01T15:36:53;1.53;;;1.00;;
7398;SDS011;3740;50.700;7.184;2023-04-01T15:39:41;0.57;;;0.57;;
7398;SDS011;3740;50.700;7.184;2023-04-01T15:42:51;0.80;;;0.77;;
7398;SDS011;3740;50.700;7.184;2023-04-01T15:48:48;1.30;;;1.20;;
7398;SDS011;3740;50.700;7.184;2023-04-01T16:00:02;1.93;;;1.60;;
7398;SDS011;3740;50.700;7.184;2023-04-01T16:02:39;0.87;;;0.87;;
7398;SDS011;3740;50.700;7.184;2023-04-01T16:13:59;1.20;;;1.10;;
7398;SDS011;3740;50.700;7.184;2023-04-01T16:19:41;0.47;;;0.43;;
7398;SDS011;3740;50.700;7.184;2023-04-01T16:27:47;1.23;;;0.83;;
7398;SDS011;3740;50.700;7.184;2023-04-01T16:30:37;0.90;;;0.90;;
7398;SDS011;3740;50.700;7.184;2023-04-01T16:35:53;1.40;;;1.37;;
7398;SDS011;3740;50.700;7.184;2023-04-01T16:38:39;0.73;;;0.73;;
7398;SDS011;3740;50.700;7.184;2023-04-01T16:51:44;1.70;;;0.90;;
7398;SDS011;3740;50.700;7.184;2023-04-01T16:57:17;0.90;;;0.90;;
7398;SDS011;3740;50.700;7.184;2023-04-01T17:00:02;0.80;;;0.80;;
7398;SDS011;3740;50.700;7.184;2023-04-01T17:02:45;1.07;;;1.07;;
7398;SDS011;3740;50.700;7.184;2023-04-01T17:05:16;0.73;;;0.70;;
7398;SDS011;3740;50.700;7.184;2023-04-01T17:13:09;0.90;;;0.90;;
7398;SDS011;3740;50.700;7.184;2023-04-01T17:21:21;1.37;;;1.27;;
7398;SDS011;3740;50.700;7.184;2023-04-01T17:29:56;2.13;;;1.40;;
7398;SDS011;3740;50.700;7.184;2023-04-01T17:32:40;1.27;;;1.20;;
7398;SDS011;3740;50.700;7.184;2023-04-01T17:52:00;1.10;;;1.10;;
7398;SDS011;3740;50.700;7.184;2023-04-01T18:00:30;2.13;;;1.37;;
7398;SDS011;3740;50.700;7.184;2023-04-01T18:03:24;3.63;;;2.20;;
7398;SDS011;3740;50.700;7.184;2023-04-01T18:06:11;1.40;;;1.30;;
7398;SDS011;3740;50.700;7.184;2023-04-01T18:11:41;1.37;;;1.37;;
7398;SDS011;3740;50.700;7.184;2023-04-01T18:14:23;1.67;;;1.57;;
7398;SDS011;3740;50.700;7.184;2023-04-01T18:25:35;2.10;;;2.00;;
7398;SDS011;3740;50.700;7.184;2023-04-01T18:30:34;1.73;;;1.63;;
7398;SDS011;3740;50.700;7.184;2023-04-01T18:35:51;2.80;;;1.73;;
7398;SDS011;3740;50.700;7.184;2023-04-01T18:50:18;1.83;;;1.70;;
7398;SDS011;3740;50.700;7.184;2023-04-01T18:55:49;2.00;;;1.80;;
7398;SDS011;3740;50.700;7.184;2023-04-01T19:01:25;2.23;;;2.13;;
7398;SDS011;3740;50.700;7.184;2023-04-01T19:04:41;2.00;;;1.90;;
7398;SDS011;3740;50.700;7.184;2023-04-01T19:09:49;2.70;;;2.50;;
7398;SDS011;3740;50.700;7.184;2023-04-01T19:14:56;3.10;;;2.67;;
7398;SDS011;3740;50.700;7.184;2023-04-01T19:20:14;2.57;;;2.47;;
7398;SDS011;3740;50.700;7.184;2023-04-01T19:27:58;2.20;;;2.00;;
7398;SDS011;3740;50.700;7.184;2023-04-01T19:30:41;2.50;;;2.30;;
7398;SDS011;3740;50.700;7.184;2023-04-01T19:33:25;2.10;;;2.00;;
7398;SDS011;3740;50.700;7.184;2023-04-01T19:36:24;2.37;;;2.27;;
7398;SDS011;3740;50.700;7.184;2023-04-01T19:38:59;3.20;;;2.90;;
7398;SDS011;3740;50.700;7.184;2023-04-01T19:41:57;2.47;;;2.27;;
7398;SDS011;3740;50.700;7.184;2023-04-01T19:44:52;3.00;;;2.80;;
7398;SDS011;3740;50.700;7.184;2023-04-01T19:47:37;3.30;;;3.00;;
7398;SDS011;3740;50.700;7.184;2023-04-01T19:53:51;3.67;;;3.43;;
7398;SDS011;3740;50.700;7.184;2023-04-01T19:56:20;3.37;;;3.10;;
7398;SDS011;3740;50.700;7.184;2023-04-01T20:01:36;2.90;;;2.80;;
7398;SDS011;3740;50.700;7.184;2023-04-01T20:04:34;3.37;;;3.07;;
7398;SDS011;3740;50.700;7.184;2023-04-01T20:07:16;2.73;;;2.53;;
7398;SDS011;3740;50.700;7.184;2023-04-01T20:09:58;2.63;;;2.43;;
7398;SDS011;3740;50.700;7.184;2023-04-01T20:12:42;2.80;;;2.60;;
7398;SDS011;3740;50.700;7.184;2023-04-01T20:15:33;2.40;;;2.20;;
7398;SDS011;3740;50.700;7.184;2023-04-01T20:18:08;2.60;;;2.40;;
7398;SDS011;3740;50.700;7.184;2023-04-01T20:20:51;2.40;;;2.20;;
7398;SDS011;3740;50.700;7.184;2023-04-01T20:25:59;2.80;;;2.60;;
7398;SDS011;3740;50.700;7.184;2023-04-01T20:29:18;2.03;;;1.93;;
7398;SDS011;3740;50.700;7.184;2023-04-01T20:31:23;2.23;;;1.90;;
7398;SDS011;3740;50.700;7.184;2023-04-01T20:36:54;1.70;;;1.60;;
7398;SDS011;3740;50.700;7.184;2023-04-01T20:39:46;1.70;;;1.60;;
7398;SDS011;3740;50.700;7.184;2023-04-01T20:45:33;1.90;;;1.80;;
7398;SDS011;3740;50.700;7.184;2023-04-01T20:58:58;2.00;;;1.90;;
7398;SDS011;3740;50.700;7.184;2023-04-01T21:07:49;1.57;;;1.47;;
7398;SDS011;3740;50.700;7.184;2023-04-01T21:13:36;0.90;;;0.90;;
7398;SDS011;3740;50.700;7.184;2023-04-01T21:16:22;1.17;;;0.90;;
7398;SDS011;3740;50.700;7.184;2023-04-01T21:19:03;1.10;;;1.10;;
7398;SDS011;3740;50.700;7.184;2023-04-01T21:27:28;1.13;;;0.90;;
7398;SDS011;3740;50.700;7.184;2023-04-01T21:32:58;1.50;;;1.40;;
7398;SDS011;3740;50.700;7.184;2023-04-01T21:46:40;1.00;;;1.00;;
7398;SDS011;3740;50.700;7.184;2023-04-01T21:49:21;1.63;;;1.53;;
7398;SDS011;3740;50.700;7.184;2023-04-01T22:05:53;1.50;;;1.40;;
7398;SDS011;3740;50.700;7.184;2023-04-01T22:08:48;2.10;;;1.70;;
7398;SDS011;3740;50.700;7.184;2023-04-01T22:14:12;1.20;;;1.10;;
7398;SDS011;3740;50.700;7.184;2023-04-01T22:22:22;1.10;;;1.00;;
7398;SDS011;3740;50.700;7.184;2023-04-01T22:27:40;1.07;;;1.07;;
7398;SDS011;3740;50.700;7.184;2023-04-01T22:30:30;1.60;;;1.37;;
7398;SDS011;3740;50.700;7.184;2023-04-01T22:39:01;1.10;;;1.10;;
7398;SDS011;3740;50.700;7.184;2023-04-01T22:41:49;1.77;;;1.33;;
7398;SDS011;3740;50.700;7.184;2023-04-01T22:47:33;1.87;;;1.77;;
7398;SDS011;3740;50.700;7.184;2023-04-01T22:50:26;2.30;;;2.13;;
7398;SDS011;3740;50.700;7.184;2023-04-01T22:55:45;2.73;;;2.33;;
7398;SDS011;3740;50.700;7.184;2023-04-01T22:58:14;3.00;;;2.50;;
7398;SDS011;3740;50.700;7.184;2023-04-01T23:00:54;1.43;;;1.40;;
7398;SDS011;3740;50.700;7.184;2023-04-01T23:05:52;2.20;;;1.70;;
7398;SDS011;3740;50.700;7.184;2023-04-01T23:11:15;1.47;;;1.37;;
7398;SDS011;3740;50.700;7.184;2023-04-01T23:13:45;1.10;;;1.10;;
7398;SDS011;3740;50.700;7.184;2023-04-01T23:16:17;1.70;;;0.93;;
7398;SDS011;3740;50.700;7.184;2023-04-01T23:22:13;0.70;;;0.70;;
7398;SDS011;3740;50.700;7.184;2023-04-01T23:24:53;1.33;;;0.90;;
7398;SDS011;3740;50.700;7.184;2023-04-01T23:27:31;0.97;;;0.97;;
7398;SDS011;3740;50.700;7.184;2023-04-01T23:30:02;0.80;;;0.80;;
7398;SDS011;3740;50.700;7.184;2023-04-01T23:32:28;0.70;;;0.70;;
7398;SDS011;3740;50.700;7.184;2023-04-01T23:34:55;0.70;;;0.70;;
7398;SDS011;3740;50.700;7.184;2023-04-01T23:37:25;0.90;;;0.87;;
7398;SDS011;3740;50.700;7.184;2023-04-01T23:39:53;0.80;;;0.80;;
7398;SDS011;3740;50.700;7.184;2023-04-01T23:44:46;0.77;;;0.77;;
7398;SDS011;3740;50.700;7.184;2023-04-01T23:47:20;0.70;;;0.70;;
7398;SDS011;3740;50.700;7.184;2023-04-01T23:49:49;1.57;;;1.47;;
7398;SDS011;3740;50.700;7.184;2023-04-01T23:52:21;1.10;;;1.00;;
7398;SDS011;3740;50.700;7.184;2023-04-01T23:55:02;0.90;;;0.90;;
7398;SDS011;3740;50.700;7.184;2023-04-01T23:57:38;1.13;;;1.10;;
